sensor_id;sensor_type;location;lat;lon;timestamp;temperature;humidity
13115;DHT22;6623;52.120;8.660;2023-12-20T00:01:29;20.00;45.90
13115;DHT22;6623;52.120;8.660;2023-12-20T00:03:54;20.10;46.00
13115;DHT22;6623;52.120;8.660;2023-12-20T00:06:20;20.10;46.00
13115;DHT22;6623;52.120;8.660;2023-12-20T00:08:45;20.10;46.00
13115;DHT22;6623;52.120;8.660;2023-12-20T00:11:11;20.10;45.90
13115;DHT22;6623;52.120;8.660;2023-12-20T00:13:36;20.00;45.90
13115;DHT22;6623;52.120;8.660;2023-12-20T00:16:02;20.00;45.90
13115;DHT22;6623;52.120;8.660;2023-12-20T00:18:27;20.10;45.90
13115;DHT22;6623;52.120;8.660;2023-12-20T00:20:53;20.10;45.90
13115;DHT22;6623;52.120;8.660;2023-12-20T00:23:18;20.00;45.90
13115;DHT22;6623;52.120;8.660;2023-12-20T00:25:44;20.10;45.90
13115;DHT22;6623;52.120;8.660;2023-12-20T00:28:09;20.10;46.00
13115;DHT22;6623;52.120;8.660;2023-12-20T00:30:35;20.10;46.00
13115;DHT22;6623;52.120;8.660;2023-12-20T00:33:01;20.10;46.00
13115;DHT22;6623;52.120;8.660;2023-12-20T00:35:27;20.10;46.00
13115;DHT22;6623;52.120;8.660;2023-12-20T00:37:53;20.10;45.90
13115;DHT22;6623;52.120;8.660;2023-12-20T00:40:18;20.10;45.90
13115;DHT22;6623;52.120;8.660;2023-12-20T00:42:44;20.10;46.00
13115;DHT22;6623;52.120;8.660;2023-12-20T00:45:12;20.00;45.90
13115;DHT22;6623;52.120;8.660;2023-12-20T00:47:37;20.10;45.90
13115;DHT22;6623;52.120;8.660;2023-12-20T00:50:03;20.10;46.00
13115;DHT22;6623;52.120;8.660;2023-12-20T00:52:29;20.10;46.00
13115;DHT22;6623;52.120;8.660;2023-12-20T00:54:54;20.10;45.90
13115;DHT22;6623;52.120;8.660;2023-12-20T00:57:20;20.10;45.90
13115;DHT22;6623;52.120;8.660;2023-12-20T00:59:45;20.00;45.90
13115;DHT22;6623;52.120;8.660;2023-12-20T01:02:11;20.10;45.90
13115;DHT22;6623;52.120;8.660;2023-12-20T01:04:36;20.10;45.90
13115;DHT22;6623;52.120;8.660;2023-12-20T01:07:02;20.10;46.00
13115;DHT22;6623;52.120;8.660;2023-12-20T01:09:27;20.10;45.90
13115;DHT22;6623;52.120;8.660;2023-12-20T01:11:53;20.10;46.00
13115;DHT22;6623;52.120;8.660;2023-12-20T01:14:18;20.00;45.90
13115;DHT22;6623;52.120;8.660;2023-12-20T01:16:44;20.10;45.90
13115;DHT22;6623;52.120;8.660;2023-12-20T01:19:09;20.10;45.90
13115;DHT22;6623;52.120;8.660;2023-12-20T01:21:35;20.10;46.00
13115;DHT22;6623;52.120;8.660;2023-12-20T01:24:00;20.10;45.90
13115;DHT22;6623;52.120;8.660;2023-12-20T01:26:26;20.10;45.90
13115;DHT22;6623;52.120;8.660;2023-12-20T01:28:51;20.00;45.90
13115;DHT22;6623;52.120;8.660;2023-12-20T01:31:17;20.10;46.00
13115;DHT22;6623;52.120;8.660;2023-12-20T01:33:42;20.10;46.00
13115;DHT22;6623;52.120;8.660;2023-12-20T01:36:08;20.00;45.90
13115;DHT22;6623;52.120;8.660;2023-12-20T01:38:34;20.10;46.00
13115;DHT22;6623;52.120;8.660;2023-12-20T01:40:59;20.00;45.90
13115;DHT22;6623;52.120;8.660;2023-12-20T01:43:25;20.00;45.90
13115;DHT22;6623;52.120;8.660;2023-12-20T01:45:51;20.00;45.90
13115;DHT22;6623;52.120;8.660;2023-12-20T01:48:18;20.00;45.90
13115;DHT22;6623;52.120;8.660;2023-12-20T01:50:44;20.00;45.90
13115;DHT22;6623;52.120;8.660;2023-12-20T01:53:12;20.00;45.90
13115;DHT22;6623;52.120;8.660;2023-12-20T01:55:39;20.00;45.90
13115;DHT22;6623;52.120;8.660;2023-12-20T01:58:07;20.00;45.90
13115;DHT22;6623;52.120;8.660;2023-12-20T02:00:34;20.10;46.00
13115;DHT22;6623;52.120;8.660;2023-12-20T02:03:01;20.10;45.90
13115;DHT22;6623;52.120;8.660;2023-12-20T02:05:28;20.10;45.90
13115;DHT22;6623;52.120;8.660;2023-12-20T02:07:54;20.00;45.90
13115;DHT22;6623;52.120;8.660;2023-12-20T02:10:20;20.00;45.90
13115;DHT22;6623;52.120;8.660;2023-12-20T02:12:46;20.00;45.90
13115;DHT22;6623;52.120;8.660;2023-12-20T02:15:11;20.10;45.90
13115;DHT22;6623;52.120;8.660;2023-12-20T02:17:38;20.00;45.90
13115;DHT22;6623;52.120;8.660;2023-12-20T02:20:05;20.00;45.90
13115;DHT22;6623;52.120;8.660;2023-12-20T02:22:31;20.00;45.90
13115;DHT22;6623;52.120;8.660;2023-12-20T02:24:56;20.00;45.90
13115;DHT22;6623;52.120;8.660;2023-12-20T02:27:23;20.00;45.90
13115;DHT22;6623;52.120;8.660;2023-12-20T02:29:50;20.00;45.90
13115;DHT22;6623;52.120;8.660;2023-12-20T02:32:17;20.10;45.90
13115;DHT22;6623;52.120;8.660;2023-12-20T02:34:43;20.00;45.90
13115;DHT22;6623;52.120;8.660;2023-12-20T02:37:08;20.00;45.90
13115;DHT22;6623;52.120;8.660;2023-12-20T02:39:34;20.10;45.90
13115;DHT22;6623;52.120;8.660;2023-12-20T02:41:59;20.00;45.90
13115;DHT22;6623;52.120;8.660;2023-12-20T02:44:25;20.00;45.90
13115;DHT22;6623;52.120;8.660;2023-12-20T02:46:50;20.10;45.90
13115;DHT22;6623;52.120;8.660;2023-12-20T02:49:16;20.10;45.90
13115;DHT22;6623;52.120;8.660;2023-12-20T02:51:41;20.00;45.90
13115;DHT22;6623;52.120;8.660;2023-12-20T02:54:07;20.10;45.90
13115;DHT22;6623;52.120;8.660;2023-12-20T02:56:33;20.00;45.90
13115;DHT22;6623;52.120;8.660;2023-12-20T02:58:58;20.00;45.90
13115;DHT22;6623;52.120;8.660;2023-12-20T03:01:24;20.10;45.90
13115;DHT22;6623;52.120;8.660;2023-12-20T03:03:50;20.00;45.90
13115;DHT22;6623;52.120;8.660;2023-12-20T03:06:18;20.00;45.80
13115;DHT22;6623;52.120;8.660;2023-12-20T03:08:45;20.00;45.90
13115;DHT22;6623;52.120;8.660;2023-12-20T03:11:10;20.00;45.80
13115;DHT22;6623;52.120;8.660;2023-12-20T03:13:36;20.10;45.90
13115;DHT22;6623;52.120;8.660;2023-12-20T03:16:07;20.00;45.80
13115;DHT22;6623;52.120;8.660;2023-12-20T03:18:33;20.00;45.90
13115;DHT22;6623;52.120;8.660;2023-12-20T03:20:58;20.00;45.80
13115;DHT22;6623;52.120;8.660;2023-12-20T03:23:24;20.00;45.80
13115;DHT22;6623;52.120;8.660;2023-12-20T03:25:49;20.10;45.80
13115;DHT22;6623;52.120;8.660;2023-12-20T03:28:15;20.10;45.80
13115;DHT22;6623;52.120;8.660;2023-12-20T03:30:41;20.00;45.80
13115;DHT22;6623;52.120;8.660;2023-12-20T03:33:06;20.00;45.80
13115;DHT22;6623;52.120;8.660;2023-12-20T03:35:33;20.00;45.80
13115;DHT22;6623;52.120;8.660;2023-12-20T03:37:58;20.00;45.80
13115;DHT22;6623;52.120;8.660;2023-12-20T03:40:25;20.10;45.90
13115;DHT22;6623;52.120;8.660;2023-12-20T03:42:51;20.00;45.80
13115;DHT22;6623;52.120;8.660;2023-12-20T03:45:16;20.10;45.90
13115;DHT22;6623;52.120;8.660;2023-12-20T03:47:42;20.10;45.80
13115;DHT22;6623;52.120;8.660;2023-12-20T03:50:07;20.00;45.80
13115;DHT22;6623;52.120;8.660;2023-12-20T03:52:33;20.10;45.80
13115;DHT22;6623;52.120;8.660;2023-12-20T03:54:58;20.00;45.80
13115;DHT22;6623;52.120;8.660;2023-12-20T03:57:24;20.00;45.80
13115;DHT22;6623;52.120;8.660;2023-12-20T03:59:49;20.00;45.80
13115;DHT22;6623;52.120;8.660;2023-12-20T04:02:15;20.00;45.80
13115;DHT22;6623;52.120;8.660;2023-12-20T04:04:43;20.00;45.80
13115;DHT22;6623;52.120;8.660;2023-12-20T04:07:08;20.00;45.80
13115;DHT22;6623;52.120;8.660;2023-12-20T04:09:34;20.00;45.80
13115;DHT22;6623;52.120;8.660;2023-12-20T04:11:59;20.00;45.80
13115;DHT22;6623;52.120;8.660;2023-12-20T04:14:25;20.00;45.80
13115;DHT22;6623;52.120;8.660;2023-12-20T04:16:51;20.00;45.70
13115;DHT22;6623;52.120;8.660;2023-12-20T04:19:16;20.00;45.80
13115;DHT22;6623;52.120;8.660;2023-12-20T04:21:41;20.00;46.40
13115;DHT22;6623;52.120;8.660;2023-12-20T04:24:07;20.00;45.80
13115;DHT22;6623;52.120;8.660;2023-12-20T04:26:33;20.00;45.80
13115;DHT22;6623;52.120;8.660;2023-12-20T04:28:59;20.00;45.80
13115;DHT22;6623;52.120;8.660;2023-12-20T04:31:24;20.00;45.80
13115;DHT22;6623;52.120;8.660;2023-12-20T04:33:50;20.00;45.80
13115;DHT22;6623;52.120;8.660;2023-12-20T04:36:15;20.00;45.80
13115;DHT22;6623;52.120;8.660;2023-12-20T04:38:41;20.00;45.80
13115;DHT22;6623;52.120;8.660;2023-12-20T04:41:06;20.00;45.80
13115;DHT22;6623;52.120;8.660;2023-12-20T04:43:32;20.00;45.80
13115;DHT22;6623;52.120;8.660;2023-12-20T04:45:57;20.00;45.80
13115;DHT22;6623;52.120;8.660;2023-12-20T04:48:23;20.00;45.80
13115;DHT22;6623;52.120;8.660;2023-12-20T04:50:48;20.00;45.70
13115;DHT22;6623;52.120;8.660;2023-12-20T04:53:14;20.00;45.80
13115;DHT22;6623;52.120;8.660;2023-12-20T04:55:39;20.00;45.80
13115;DHT22;6623;52.120;8.660;2023-12-20T04:58:05;20.00;45.70
13115;DHT22;6623;52.120;8.660;2023-12-20T05:00:30;20.00;45.70
13115;DHT22;6623;52.120;8.660;2023-12-20T05:02:56;20.00;45.70
13115;DHT22;6623;52.120;8.660;2023-12-20T05:05:22;20.00;45.70
13115;DHT22;6623;52.120;8.660;2023-12-20T05:07:47;20.00;45.70
13115;DHT22;6623;52.120;8.660;2023-12-20T05:10:13;20.00;45.70
13115;DHT22;6623;52.120;8.660;2023-12-20T05:12:38;20.00;45.70
13115;DHT22;6623;52.120;8.660;2023-12-20T05:15:06;20.00;45.70
13115;DHT22;6623;52.120;8.660;2023-12-20T05:17:31;20.00;45.70
13115;DHT22;6623;52.120;8.660;2023-12-20T05:19:57;20.00;45.70
13115;DHT22;6623;52.120;8.660;2023-12-20T05:22:22;20.00;45.70
13115;DHT22;6623;52.120;8.660;2023-12-20T05:24:48;20.00;45.70
13115;DHT22;6623;52.120;8.660;2023-12-20T05:27:13;20.00;45.70
13115;DHT22;6623;52.120;8.660;2023-12-20T05:29:39;20.00;45.70
13115;DHT22;6623;52.120;8.660;2023-12-20T05:32:05;20.00;45.70
13115;DHT22;6623;52.120;8.660;2023-12-20T05:34:31;20.00;45.70
13115;DHT22;6623;52.120;8.660;2023-12-20T05:36:58;20.00;45.70
13115;DHT22;6623;52.120;8.660;2023-12-20T05:39:23;20.00;45.70
13115;DHT22;6623;52.120;8.660;2023-12-20T05:41:49;20.00;45.70
13115;DHT22;6623;52.120;8.660;2023-12-20T05:44:14;20.00;45.70
13115;DHT22;6623;52.120;8.660;2023-12-20T05:46:40;20.00;45.70
13115;DHT22;6623;52.120;8.660;2023-12-20T05:49:06;20.00;45.70
13115;DHT22;6623;52.120;8.660;2023-12-20T05:51:32;20.00;46.30
13115;DHT22;6623;52.120;8.660;2023-12-20T05:53:58;20.00;45.70
13115;DHT22;6623;52.120;8.660;2023-12-20T05:56:23;20.00;45.70
13115;DHT22;6623;52.120;8.660;2023-12-20T05:58:49;20.00;45.70
13115;DHT22;6623;52.120;8.660;2023-12-20T06:01:15;20.00;45.70
13115;DHT22;6623;52.120;8.660;2023-12-20T06:03:42;20.00;45.70
13115;DHT22;6623;52.120;8.660;2023-12-20T06:06:08;19.90;45.60
13115;DHT22;6623;52.120;8.660;2023-12-20T06:08:34;20.00;45.70
13115;DHT22;6623;52.120;8.660;2023-12-20T06:10:59;19.90;45.60
13115;DHT22;6623;52.120;8.660;2023-12-20T06:13:25;20.00;45.70
13115;DHT22;6623;52.120;8.660;2023-12-20T06:15:51;20.00;45.70
13115;DHT22;6623;52.120;8.660;2023-12-20T06:18:17;20.00;45.70
13115;DHT22;6623;52.120;8.660;2023-12-20T06:20:42;20.00;45.70
13115;DHT22;6623;52.120;8.660;2023-12-20T06:23:08;20.00;45.70
13115;DHT22;6623;52.120;8.660;2023-12-20T06:25:33;20.00;45.70
13115;DHT22;6623;52.120;8.660;2023-12-20T06:27:59;20.00;45.70
13115;DHT22;6623;52.120;8.660;2023-12-20T06:30:25;19.90;45.60
13115;DHT22;6623;52.120;8.660;2023-12-20T06:32:53;20.00;45.70
13115;DHT22;6623;52.120;8.660;2023-12-20T06:35:18;20.00;45.70
13115;DHT22;6623;52.120;8.660;2023-12-20T06:37:44;19.90;46.30
13115;DHT22;6623;52.120;8.660;2023-12-20T06:40:10;20.00;45.70
13115;DHT22;6623;52.120;8.660;2023-12-20T06:42:36;20.00;45.70
13115;DHT22;6623;52.120;8.660;2023-12-20T06:45:02;20.00;45.70
13115;DHT22;6623;52.120;8.660;2023-12-20T06:47:27;19.90;45.60
13115;DHT22;6623;52.120;8.660;2023-12-20T06:49:53;19.90;45.60
13115;DHT22;6623;52.120;8.660;2023-12-20T06:52:18;20.00;45.70
13115;DHT22;6623;52.120;8.660;2023-12-20T06:54:44;19.90;45.60
13115;DHT22;6623;52.120;8.660;2023-12-20T06:57:09;20.00;45.70
13115;DHT22;6623;52.120;8.660;2023-12-20T06:59:39;20.00;45.60
13115;DHT22;6623;52.120;8.660;2023-12-20T07:02:05;20.00;45.60
13115;DHT22;6623;52.120;8.660;2023-12-20T07:04:31;19.90;45.60
13115;DHT22;6623;52.120;8.660;2023-12-20T07:06:56;19.90;45.60
13115;DHT22;6623;52.120;8.660;2023-12-20T07:09:25;19.90;45.60
13115;DHT22;6623;52.120;8.660;2023-12-20T07:11:51;20.00;45.60
13115;DHT22;6623;52.120;8.660;2023-12-20T07:14:18;20.00;45.60
13115;DHT22;6623;52.120;8.660;2023-12-20T07:16:43;19.90;45.60
13115;DHT22;6623;52.120;8.660;2023-12-20T07:19:09;19.90;45.60
13115;DHT22;6623;52.120;8.660;2023-12-20T07:21:35;19.90;45.60
13115;DHT22;6623;52.120;8.660;2023-12-20T07:24:00;20.00;45.60
13115;DHT22;6623;52.120;8.660;2023-12-20T07:26:26;20.00;45.60
13115;DHT22;6623;52.120;8.660;2023-12-20T07:28:51;20.00;45.60
13115;DHT22;6623;52.120;8.660;2023-12-20T07:31:17;19.90;45.60
13115;DHT22;6623;52.120;8.660;2023-12-20T07:33:42;19.90;45.60
13115;DHT22;6623;52.120;8.660;2023-12-20T07:36:08;19.90;45.60
13115;DHT22;6623;52.120;8.660;2023-12-20T07:38:34;19.90;45.60
13115;DHT22;6623;52.120;8.660;2023-12-20T07:40:59;19.90;45.60
13115;DHT22;6623;52.120;8.660;2023-12-20T07:43:25;19.90;45.60
13115;DHT22;6623;52.120;8.660;2023-12-20T07:45:50;20.00;45.60
13115;DHT22;6623;52.120;8.660;2023-12-20T07:48:16;19.90;45.60
13115;DHT22;6623;52.120;8.660;2023-12-20T07:50:42;20.00;45.60
13115;DHT22;6623;52.120;8.660;2023-12-20T07:53:07;20.00;45.60
13115;DHT22;6623;52.120;8.660;2023-12-20T07:55:33;19.90;45.60
13115;DHT22;6623;52.120;8.660;2023-12-20T07:57:59;20.00;45.60
13115;DHT22;6623;52.120;8.660;2023-12-20T08:00:25;19.90;45.60
13115;DHT22;6623;52.120;8.660;2023-12-20T08:02:50;19.90;45.60
13115;DHT22;6623;52.120;8.660;2023-12-20T08:05:16;19.90;45.60
13115;DHT22;6623;52.120;8.660;2023-12-20T08:07:41;19.90;45.60
13115;DHT22;6623;52.120;8.660;2023-12-20T08:10:07;19.90;45.60
13115;DHT22;6623;52.120;8.660;2023-12-20T08:12:33;19.90;45.60
13115;DHT22;6623;52.120;8.660;2023-12-20T08:14:59;19.90;45.60
13115;DHT22;6623;52.120;8.660;2023-12-20T08:17:24;19.90;45.60
13115;DHT22;6623;52.120;8.660;2023-12-20T08:19:51;19.90;45.60
13115;DHT22;6623;52.120;8.660;2023-12-20T08:22:17;19.90;45.50
13115;DHT22;6623;52.120;8.660;2023-12-20T08:24:42;19.90;45.50
13115;DHT22;6623;52.120;8.660;2023-12-20T08:27:07;19.90;45.50
13115;DHT22;6623;52.120;8.660;2023-12-20T08:29:35;19.90;45.60
13115;DHT22;6623;52.120;8.660;2023-12-20T08:32:00;19.90;45.50
13115;DHT22;6623;52.120;8.660;2023-12-20T08:34:26;19.90;45.60
13115;DHT22;6623;52.120;8.660;2023-12-20T08:36:52;19.90;45.60
13115;DHT22;6623;52.120;8.660;2023-12-20T08:39:17;19.90;45.60
13115;DHT22;6623;52.120;8.660;2023-12-20T08:41:43;19.90;45.50
13115;DHT22;6623;52.120;8.660;2023-12-20T08:44:09;19.90;45.60
13115;DHT22;6623;52.120;8.660;2023-12-20T08:46:35;19.90;45.50
13115;DHT22;6623;52.120;8.660;2023-12-20T08:49:01;19.90;45.60
13115;DHT22;6623;52.120;8.660;2023-12-20T08:51:26;19.90;45.60
13115;DHT22;6623;52.120;8.660;2023-12-20T08:53:52;19.90;45.50
13115;DHT22;6623;52.120;8.660;2023-12-20T08:56:18;19.90;45.60
13115;DHT22;6623;52.120;8.660;2023-12-20T08:58:44;19.90;45.60
13115;DHT22;6623;52.120;8.660;2023-12-20T09:01:09;19.90;45.50
13115;DHT22;6623;52.120;8.660;2023-12-20T09:03:35;19.90;45.50
13115;DHT22;6623;52.120;8.660;2023-12-20T09:06:00;19.90;45.50
13115;DHT22;6623;52.120;8.660;2023-12-20T09:08:26;19.90;45.50
13115;DHT22;6623;52.120;8.660;2023-12-20T09:10:51;19.90;45.50
13115;DHT22;6623;52.120;8.660;2023-12-20T09:13:17;19.90;45.50
13115;DHT22;6623;52.120;8.660;2023-12-20T09:15:42;19.90;45.50
13115;DHT22;6623;52.120;8.660;2023-12-20T09:18:08;19.90;45.50
13115;DHT22;6623;52.120;8.660;2023-12-20T09:20:34;19.90;45.50
13115;DHT22;6623;52.120;8.660;2023-12-20T09:23:00;19.90;45.50
13115;DHT22;6623;52.120;8.660;2023-12-20T09:25:25;19.90;45.50
13115;DHT22;6623;52.120;8.660;2023-12-20T09:27:52;19.90;45.50
13115;DHT22;6623;52.120;8.660;2023-12-20T09:30:18;19.90;45.50
13115;DHT22;6623;52.120;8.660;2023-12-20T09:32:44;19.90;45.50
13115;DHT22;6623;52.120;8.660;2023-12-20T09:35:10;19.90;45.50
13115;DHT22;6623;52.120;8.660;2023-12-20T09:37:36;19.90;45.50
13115;DHT22;6623;52.120;8.660;2023-12-20T09:40:02;19.90;45.50
13115;DHT22;6623;52.120;8.660;2023-12-20T09:42:56;19.90;46.10
13115;DHT22;6623;52.120;8.660;2023-12-20T09:45:22;19.90;45.50
13115;DHT22;6623;52.120;8.660;2023-12-20T09:47:50;19.90;45.50
13115;DHT22;6623;52.120;8.660;2023-12-20T09:50:18;19.90;45.50
13115;DHT22;6623;52.120;8.660;2023-12-20T09:52:43;19.90;45.50
13115;DHT22;6623;52.120;8.660;2023-12-20T09:55:10;19.90;45.50
13115;DHT22;6623;52.120;8.660;2023-12-20T09:57:36;19.90;45.50
13115;DHT22;6623;52.120;8.660;2023-12-20T10:00:01;19.90;45.50
13115;DHT22;6623;52.120;8.660;2023-12-20T10:02:27;19.90;45.50
13115;DHT22;6623;52.120;8.660;2023-12-20T10:04:54;19.90;45.50
13115;DHT22;6623;52.120;8.660;2023-12-20T10:07:19;19.90;45.50
13115;DHT22;6623;52.120;8.660;2023-12-20T10:09:46;19.90;46.20
13115;DHT22;6623;52.120;8.660;2023-12-20T10:12:12;19.90;45.50
13115;DHT22;6623;52.120;8.660;2023-12-20T10:14:39;19.90;45.50
13115;DHT22;6623;52.120;8.660;2023-12-20T10:17:05;19.90;45.50
13115;DHT22;6623;52.120;8.660;2023-12-20T10:19:32;19.90;45.50
13115;DHT22;6623;52.120;8.660;2023-12-20T10:21:59;19.90;45.50
13115;DHT22;6623;52.120;8.660;2023-12-20T10:24:25;19.90;45.60
13115;DHT22;6623;52.120;8.660;2023-12-20T10:27:07;19.90;45.50
13115;DHT22;6623;52.120;8.660;2023-12-20T10:29:34;19.90;45.50
13115;DHT22;6623;52.120;8.660;2023-12-20T10:32:24;19.90;45.50
13115;DHT22;6623;52.120;8.660;2023-12-20T10:34:51;19.90;45.50
13115;DHT22;6623;52.120;8.660;2023-12-20T10:37:16;19.90;45.50
13115;DHT22;6623;52.120;8.660;2023-12-20T10:39:50;19.90;45.50
13115;DHT22;6623;52.120;8.660;2023-12-20T10:42:18;19.90;45.50
13115;DHT22;6623;52.120;8.660;2023-12-20T10:44:46;19.90;45.60
13115;DHT22;6623;52.120;8.660;2023-12-20T10:47:13;19.90;45.50
13115;DHT22;6623;52.120;8.660;2023-12-20T10:49:39;19.90;45.50
13115;DHT22;6623;52.120;8.660;2023-12-20T10:52:06;19.90;45.50
13115;DHT22;6623;52.120;8.660;2023-12-20T10:54:32;19.90;45.50
13115;DHT22;6623;52.120;8.660;2023-12-20T10:56:58;19.90;45.50
13115;DHT22;6623;52.120;8.660;2023-12-20T10:59:24;19.90;45.50
13115;DHT22;6623;52.120;8.660;2023-12-20T11:01:50;19.90;45.50
13115;DHT22;6623;52.120;8.660;2023-12-20T11:04:25;19.90;45.50
13115;DHT22;6623;52.120;8.660;2023-12-20T11:07:08;19.90;45.50
13115;DHT22;6623;52.120;8.660;2023-12-20T11:09:40;19.90;45.40
13115;DHT22;6623;52.120;8.660;2023-12-20T11:12:16;19.90;45.50
13115;DHT22;6623;52.120;8.660;2023-12-20T11:14:48;19.90;45.40
13115;DHT22;6623;52.120;8.660;2023-12-20T11:17:14;19.90;45.50
13115;DHT22;6623;52.120;8.660;2023-12-20T11:22:26;19.90;45.40
13115;DHT22;6623;52.120;8.660;2023-12-20T11:24:53;19.90;45.50
13115;DHT22;6623;52.120;8.660;2023-12-20T11:27:19;19.90;45.40
13115;DHT22;6623;52.120;8.660;2023-12-20T11:29:52;19.90;45.40
13115;DHT22;6623;52.120;8.660;2023-12-20T11:35:19;19.80;45.40
13115;DHT22;6623;52.120;8.660;2023-12-20T11:37:46;19.80;45.40
13115;DHT22;6623;52.120;8.660;2023-12-20T11:40:17;19.90;45.40
13115;DHT22;6623;52.120;8.660;2023-12-20T11:42:45;19.80;45.40
13115;DHT22;6623;52.120;8.660;2023-12-20T11:45:15;19.80;45.40
13115;DHT22;6623;52.120;8.660;2023-12-20T11:47:51;19.80;45.40
13115;DHT22;6623;52.120;8.660;2023-12-20T11:50:17;19.80;45.40
13115;DHT22;6623;52.120;8.660;2023-12-20T11:52:43;19.80;45.40
13115;DHT22;6623;52.120;8.660;2023-12-20T11:55:09;19.80;45.40
13115;DHT22;6623;52.120;8.660;2023-12-20T11:57:36;19.80;45.40
13115;DHT22;6623;52.120;8.660;2023-12-20T12:00:02;19.80;45.40
13115;DHT22;6623;52.120;8.660;2023-12-20T12:02:28;19.80;45.40
13115;DHT22;6623;52.120;8.660;2023-12-20T12:04:53;19.80;45.40
13115;DHT22;6623;52.120;8.660;2023-12-20T12:07:19;19.80;45.40
13115;DHT22;6623;52.120;8.660;2023-12-20T12:09:45;19.80;45.40
13115;DHT22;6623;52.120;8.660;2023-12-20T12:12:12;19.80;45.40
13115;DHT22;6623;52.120;8.660;2023-12-20T12:14:38;19.80;45.40
13115;DHT22;6623;52.120;8.660;2023-12-20T12:17:04;19.80;45.40
13115;DHT22;6623;52.120;8.660;2023-12-20T12:19:30;19.80;45.40
13115;DHT22;6623;52.120;8.660;2023-12-20T12:22:11;19.80;45.40
13115;DHT22;6623;52.120;8.660;2023-12-20T12:24:43;19.80;45.40
13115;DHT22;6623;52.120;8.660;2023-12-20T12:27:09;19.80;45.40
13115;DHT22;6623;52.120;8.660;2023-12-20T12:29:35;19.80;45.40
13115;DHT22;6623;52.120;8.660;2023-12-20T12:32:05;19.80;45.50
13115;DHT22;6623;52.120;8.660;2023-12-20T12:34:31;19.80;45.40
13115;DHT22;6623;52.120;8.660;2023-12-20T12:36:57;19.80;45.40
13115;DHT22;6623;52.120;8.660;2023-12-20T12:39:23;19.80;45.40
13115;DHT22;6623;52.120;8.660;2023-12-20T12:41:50;19.80;45.40
13115;DHT22;6623;52.120;8.660;2023-12-20T12:44:16;19.80;45.40
13115;DHT22;6623;52.120;8.660;2023-12-20T12:46:43;19.80;45.40
13115;DHT22;6623;52.120;8.660;2023-12-20T12:49:09;19.80;45.40
13115;DHT22;6623;52.120;8.660;2023-12-20T12:51:34;19.80;45.40
13115;DHT22;6623;52.120;8.660;2023-12-20T12:54:00;19.80;46.10
13115;DHT22;6623;52.120;8.660;2023-12-20T12:56:25;19.80;45.40
13115;DHT22;6623;52.120;8.660;2023-12-20T12:58:51;19.80;45.40
13115;DHT22;6623;52.120;8.660;2023-12-20T13:01:16;19.80;45.40
13115;DHT22;6623;52.120;8.660;2023-12-20T13:03:42;19.80;45.40
13115;DHT22;6623;52.120;8.660;2023-12-20T13:06:07;19.80;45.40
13115;DHT22;6623;52.120;8.660;2023-12-20T13:08:34;19.80;45.40
13115;DHT22;6623;52.120;8.660;2023-12-20T13:11:00;19.80;45.40
13115;DHT22;6623;52.120;8.660;2023-12-20T13:13:26;19.80;45.40
13115;DHT22;6623;52.120;8.660;2023-12-20T13:15:52;19.80;45.40
13115;DHT22;6623;52.120;8.660;2023-12-20T13:18:20;19.80;45.40
13115;DHT22;6623;52.120;8.660;2023-12-20T13:20:46;19.80;45.40
13115;DHT22;6623;52.120;8.660;2023-12-20T13:23:12;19.80;45.40
13115;DHT22;6623;52.120;8.660;2023-12-20T13:25:37;19.80;45.40
13115;DHT22;6623;52.120;8.660;2023-12-20T13:28:03;19.80;45.40
13115;DHT22;6623;52.120;8.660;2023-12-20T13:30:29;19.80;45.40
13115;DHT22;6623;52.120;8.660;2023-12-20T13:32:55;19.80;45.40
13115;DHT22;6623;52.120;8.660;2023-12-20T13:35:20;19.80;45.50
13115;DHT22;6623;52.120;8.660;2023-12-20T13:37:46;19.80;45.40
13115;DHT22;6623;52.120;8.660;2023-12-20T13:40:12;19.80;45.40
13115;DHT22;6623;52.120;8.660;2023-12-20T13:42:41;19.80;45.40
13115;DHT22;6623;52.120;8.660;2023-12-20T13:45:07;19.80;45.50
13115;DHT22;6623;52.120;8.660;2023-12-20T13:47:34;19.80;45.40
13115;DHT22;6623;52.120;8.660;2023-12-20T13:50:00;19.80;45.50
13115;DHT22;6623;52.120;8.660;2023-12-20T13:52:25;19.80;45.50
13115;DHT22;6623;52.120;8.660;2023-12-20T13:54:51;19.70;45.40
13115;DHT22;6623;52.120;8.660;2023-12-20T13:57:16;19.80;45.50
13115;DHT22;6623;52.120;8.660;2023-12-20T13:59:42;19.80;45.50
13115;DHT22;6623;52.120;8.660;2023-12-20T14:02:07;19.80;45.50
13115;DHT22;6623;52.120;8.660;2023-12-20T14:04:33;19.80;45.50
13115;DHT22;6623;52.120;8.660;2023-12-20T14:06:58;19.80;45.50
13115;DHT22;6623;52.120;8.660;2023-12-20T14:09:24;19.80;45.50
13115;DHT22;6623;52.120;8.660;2023-12-20T14:11:50;19.80;46.10
13115;DHT22;6623;52.120;8.660;2023-12-20T14:14:15;19.80;45.50
13115;DHT22;6623;52.120;8.660;2023-12-20T14:16:41;19.80;45.50
13115;DHT22;6623;52.120;8.660;2023-12-20T14:19:10;19.80;45.50
13115;DHT22;6623;52.120;8.660;2023-12-20T14:21:36;19.80;45.50
13115;DHT22;6623;52.120;8.660;2023-12-20T14:24:01;19.80;45.50
13115;DHT22;6623;52.120;8.660;2023-12-20T14:26:27;19.80;45.50
13115;DHT22;6623;52.120;8.660;2023-12-20T14:28:53;19.80;45.50
13115;DHT22;6623;52.120;8.660;2023-12-20T14:31:19;19.80;45.40
13115;DHT22;6623;52.120;8.660;2023-12-20T14:33:44;19.80;45.50
13115;DHT22;6623;52.120;8.660;2023-12-20T14:36:11;19.80;45.50
13115;DHT22;6623;52.120;8.660;2023-12-20T14:38:37;19.80;45.50
13115;DHT22;6623;52.120;8.660;2023-12-20T14:41:03;19.80;45.50
13115;DHT22;6623;52.120;8.660;2023-12-20T14:43:34;19.80;45.50
13115;DHT22;6623;52.120;8.660;2023-12-20T14:45:59;19.80;45.50
13115;DHT22;6623;52.120;8.660;2023-12-20T14:48:25;19.80;45.50
13115;DHT22;6623;52.120;8.660;2023-12-20T14:50:52;19.80;45.50
13115;DHT22;6623;52.120;8.660;2023-12-20T14:53:18;19.80;45.50
13115;DHT22;6623;52.120;8.660;2023-12-20T14:55:44;19.80;45.50
13115;DHT22;6623;52.120;8.660;2023-12-20T14:58:09;19.80;45.50
13115;DHT22;6623;52.120;8.660;2023-12-20T15:00:35;19.80;45.50
13115;DHT22;6623;52.120;8.660;2023-12-20T15:03:00;19.80;45.50
13115;DHT22;6623;52.120;8.660;2023-12-20T15:05:26;19.80;45.50
13115;DHT22;6623;52.120;8.660;2023-12-20T15:07:52;19.80;45.50
13115;DHT22;6623;52.120;8.660;2023-12-20T15:10:18;19.80;45.50
13115;DHT22;6623;52.120;8.660;2023-12-20T15:12:44;19.80;45.50
13115;DHT22;6623;52.120;8.660;2023-12-20T15:15:10;19.80;45.50
13115;DHT22;6623;52.120;8.660;2023-12-20T15:17:36;19.80;45.50
13115;DHT22;6623;52.120;8.660;2023-12-20T15:20:02;19.80;45.50
13115;DHT22;6623;52.120;8.660;2023-12-20T15:22:29;19.80;45.50
13115;DHT22;6623;52.120;8.660;2023-12-20T15:24:54;19.80;45.50
13115;DHT22;6623;52.120;8.660;2023-12-20T15:27:20;19.80;45.50
13115;DHT22;6623;52.120;8.660;2023-12-20T15:29:46;19.80;45.50
13115;DHT22;6623;52.120;8.660;2023-12-20T15:32:11;19.80;45.40
13115;DHT22;6623;52.120;8.660;2023-12-20T15:34:37;19.80;45.50
13115;DHT22;6623;52.120;8.660;2023-12-20T15:37:03;19.80;45.50
13115;DHT22;6623;52.120;8.660;2023-12-20T15:39:28;19.80;45.50
13115;DHT22;6623;52.120;8.660;2023-12-20T15:41:54;19.80;45.50
13115;DHT22;6623;52.120;8.660;2023-12-20T15:44:19;19.80;45.50